Time;durP1;ratioP1;P1;durP2;ratioP2;P2;SDS_P1;SDS_P2;PMS_P1;PMS_P2;Temp;Humidity;BMP_temperature;BMP_pressure;BME280_temperature;BME280_humidity;BME280_pressure;Samples;Min_cycle;Max_cycle;Signal;HPM_P1;HPM_P2
2023/09/11 00:00:39;;;;;;;8.98;8.07;;;;;;;18.14;100.00;96258.56;4985999;28;20529;-66
2023/09/11 00:03:05;;;;;;;8.82;7.93;;;;;;;18.04;100.00;96250.78;4986387;28;20041;-66
2023/09/11 00:05:30;;;;;;;8.00;7.28;;;;;;;18.00;100.00;96252.94;4983959;28;20034;-66
2023/09/11 00:07:57;;;;;;;8.38;7.78;;;;;;;17.97;100.00;96252.47;4981471;28;20027;-66
2023/09/11 00:10:23;;;;;;;9.82;7.80;;;;;;;17.96;100.00;96243.63;4990162;28;20046;-66
2023/09/11 00:12:48;;;;;;;8.43;7.60;;;;;;;17.96;100.00;96246.31;4987545;28;20461;-66
2023/09/11 00:15:14;;;;;;;7.60;7.05;;;;;;;17.97;100.00;96247.16;4985162;28;20045;-66
2023/09/11 00:17:39;;;;;;;8.20;7.50;;;;;;;17.98;100.00;96241.63;4989166;28;20033;-66
2023/09/11 00:20:10;;;;;;;11.10;8.23;;;;;;;17.96;100.00;96237.50;4976434;28;20050;-66
2023/09/11 00:22:36;;;;;;;8.40;7.65;;;;;;;17.95;100.00;96236.66;4980053;28;20105;-66
2023/09/11 00:25:01;;;;;;;8.20;7.50;;;;;;;17.94;100.00;96235.00;4986229;28;20023;-66
2023/09/11 00:27:27;;;;;;;8.48;7.70;;;;;;;17.94;100.00;96234.19;4982837;28;20033;-66
2023/09/11 00:29:52;;;;;;;8.45;7.75;;;;;;;17.93;100.00;96233.34;4984146;28;20046;-66
2023/09/11 00:32:18;;;;;;;8.05;7.35;;;;;;;17.90;100.00;96233.69;4985397;28;20496;-66
2023/09/11 00:34:43;;;;;;;10.40;7.45;;;;;;;17.86;100.00;96235.88;4985773;28;20406;-66
2023/09/11 00:37:09;;;;;;;9.02;7.88;;;;;;;17.87;100.00;96234.03;4982238;28;20025;-66
2023/09/11 00:39:34;;;;;;;8.48;7.85;;;;;;;17.87;100.00;96236.72;4991472;28;20090;-66
2023/09/11 00:42:00;;;;;;;8.13;7.43;;;;;;;17.88;100.00;96235.69;4987338;28;20014;-66
2023/09/11 00:44:25;;;;;;;8.40;7.80;;;;;;;17.85;100.00;96230.72;4984516;28;20033;-66
2023/09/11 00:46:51;;;;;;;8.57;7.70;;;;;;;17.87;100.00;96223.41;4984719;28;20026;-66
2023/09/11 00:49:19;;;;;;;8.30;7.68;;;;;;;17.89;100.00;96232.03;4978176;28;20056;-66
2023/09/11 00:51:44;;;;;;;8.40;7.80;;;;;;;17.88;100.00;96225.06;4981807;28;20057;-66
2023/09/11 00:54:10;;;;;;;9.27;8.48;;;;;;;17.86;100.00;96230.53;4982211;28;20064;-66
2023/09/11 00:56:36;;;;;;;8.85;8.02;;;;;;;17.85;100.00;96241.38;4977603;28;20399;-66
2023/09/11 00:59:02;;;;;;;8.60;8.00;;;;;;;17.76;100.00;96243.25;4982803;28;20372;-66
2023/09/11 01:01:28;;;;;;;9.05;8.25;;;;;;;17.72;100.00;96237.44;4990310;28;20057;-66
2023/09/11 01:03:54;;;;;;;9.40;8.50;;;;;;;17.69;100.00;96232.47;4989106;28;20038;-66
2023/09/11 01:06:21;;;;;;;10.52;8.52;;;;;;;17.67;100.00;96233.63;4986483;28;20045;-66
2023/09/11 01:08:46;;;;;;;9.13;8.25;;;;;;;17.65;100.00;96235.63;4983635;28;20301;-66
2023/09/11 01:11:12;;;;;;;9.05;8.35;;;;;;;17.63;100.00;96241.16;4980293;28;20061;-66
2023/09/11 01:13:37;;;;;;;8.32;7.72;;;;;;;17.64;100.00;96229.50;4980180;28;20054;-66
2023/09/11 01:16:26;;;;;;;10.45;8.25;;;;;;;17.65;100.00;96236.47;4987561;28;20030;-66
2023/09/11 01:18:59;;;;;;;9.48;8.55;;;;;;;17.62;100.00;96236.81;4986388;28;20039;-66
2023/09/11 01:21:54;;;;;;;9.65;8.57;;;;;;;17.57;100.00;96232.00;4983928;28;20026;-66
2023/09/11 01:24:54;;;;;;;8.90;8.13;;;;;;;17.56;100.00;96237.50;4987261;28;20099;-66
2023/09/11 01:27:31;;;;;;;9.32;8.63;;;;;;;17.58;100.00;96240.84;4978968;28;20037;-66
2023/09/11 01:29:58;;;;;;;9.20;8.50;;;;;;;17.56;100.00;96232.16;4981944;28;20058;-66
2023/09/11 01:32:25;;;;;;;9.65;8.85;;;;;;;17.54;100.00;96232.38;4982349;28;20046;-66
2023/09/11 01:34:51;;;;;;;9.60;8.82;;;;;;;17.53;100.00;96221.88;4984649;28;20043;-66
2023/09/11 01:37:16;;;;;;;8.50;7.95;;;;;;;17.47;100.00;96229.56;4984008;28;20107;-66
2023/09/11 01:39:42;;;;;;;9.15;8.55;;;;;;;17.46;100.00;96232.38;4989132;28;20117;-66
2023/09/11 01:42:11;;;;;;;8.88;8.18;;;;;;;17.36;100.00;96231.75;4977884;28;20027;-66
2023/09/11 01:44:43;;;;;;;9.55;8.27;;;;;;;17.30;100.00;96227.94;4983628;28;20503;-66
2023/09/11 01:47:13;;;;;;;9.30;8.50;;;;;;;17.28;100.00;96227.28;4984212;28;20030;-66
2023/09/11 01:49:39;;;;;;;9.40;8.60;;;;;;;17.28;100.00;96230.78;4985162;28;20076;-66
2023/09/11 01:52:07;;;;;;;10.27;9.02;;;;;;;17.26;100.00;96223.97;4985147;28;20030;-66
2023/09/11 01:54:34;;;;;;;9.52;8.75;;;;;;;17.26;100.00;96221.31;4985536;28;20041;-66
2023/09/11 01:57:00;;;;;;;9.18;8.57;;;;;;;17.22;100.00;96235.97;4985177;28;20034;-66
2023/09/11 01:59:26;;;;;;;9.13;8.43;;;;;;;17.20;100.00;96232.63;4985487;28;20040;-66
2023/09/11 02:01:51;;;;;;;9.05;8.45;;;;;;;17.21;100.00;96236.97;4978289;28;20109;-66
2023/09/11 02:04:17;;;;;;;9.48;8.77;;;;;;;17.22;100.00;96230.63;4985915;28;20026;-66
2023/09/11 02:06:42;;;;;;;10.07;9.15;;;;;;;17.17;100.00;96241.78;4989732;28;20026;-66
2023/09/11 02:09:07;;;;;;;9.68;8.88;;;;;;;17.16;100.00;96253.44;4987842;28;20042;-66
2023/09/11 02:11:33;;;;;;;9.45;8.57;;;;;;;17.16;100.00;96253.44;4987513;28;20123;-66
2023/09/11 02:13:58;;;;;;;9.45;8.77;;;;;;;17.17;100.00;96252.44;4990804;28;20030;-66
2023/09/11 02:16:24;;;;;;;8.90;8.10;;;;;;;17.16;100.00;96256.94;4990983;28;20061;-66
2023/09/11 02:18:49;;;;;;;10.43;9.00;;;;;;;17.09;100.00;96255.94;4974315;28;20033;-66
2023/09/11 02:21:14;;;;;;;10.15;9.15;;;;;;;16.95;100.00;96252.09;4988076;28;20054;-66
2023/09/11 02:23:41;;;;;;;9.63;8.82;;;;;;;16.88;100.00;96253.78;4986056;28;20087;-66
2023/09/11 02:26:07;;;;;;;10.25;9.18;;;;;;;16.84;100.00;96266.56;4993630;28;20029;-66
2023/09/11 02:28:32;;;;;;;9.25;8.35;;;;;;;16.81;100.00;96255.47;4988948;28;20031;-66
2023/09/11 02:30:58;;;;;;;9.93;8.93;;;;;;;16.80;100.00;96251.94;4989312;28;20060;-66
2023/09/11 02:33:23;;;;;;;10.23;9.43;;;;;;;16.75;100.00;96247.13;4993719;28;20026;-66
2023/09/11 02:35:56;;;;;;;10.52;9.45;;;;;;;16.72;100.00;96238.69;4993317;28;20060;-66
2023/09/11 02:38:22;;;;;;;10.30;9.40;;;;;;;16.75;100.00;96244.47;4993730;28;20058;-66
2023/09/11 02:40:47;;;;;;;10.05;9.25;;;;;;;16.80;100.00;96243.97;4993745;28;20609;-66
2023/09/11 02:43:13;;;;;;;10.32;9.52;;;;;;;16.76;100.00;96243.47;4990802;28;20014;-66
2023/09/11 02:45:38;;;;;;;9.95;9.10;;;;;;;16.69;100.00;96237.16;4981581;28;20429;-66
2023/09/11 02:48:04;;;;;;;10.02;9.23;;;;;;;16.69;100.00;96236.31;4987022;28;20039;-66
2023/09/11 02:50:29;;;;;;;9.95;8.95;;;;;;;16.69;100.00;96231.00;4979747;28;20030;-66
2023/09/11 02:52:55;;;;;;;10.02;9.18;;;;;;;16.71;100.00;96229.84;4984832;28;20876;-66
2023/09/11 02:55:20;;;;;;;10.38;9.57;;;;;;;16.72;100.00;96217.41;4990907;28;20477;-66
2023/09/11 02:57:46;;;;;;;10.35;9.45;;;;;;;16.67;100.00;96223.22;4993001;28;20102;-66
2023/09/11 03:00:12;;;;;;;10.55;9.40;;;;;;;16.65;100.00;96209.25;4986945;28;20030;-66
2023/09/11 03:02:38;;;;;;;10.65;9.77;;;;;;;16.64;100.00;96210.25;4989743;28;20026;-66
2023/09/11 03:05:04;;;;;;;10.48;9.55;;;;;;;16.66;100.00;96218.06;4987509;28;20056;-66
2023/09/11 03:07:29;;;;;;;10.10;9.30;;;;;;;16.66;100.00;96212.75;4984318;28;20019;-66
2023/09/11 03:09:54;;;;;;;10.43;9.52;;;;;;;16.65;100.00;96203.94;4983691;28;20033;-66
2023/09/11 03:12:20;;;;;;;10.90;9.77;;;;;;;16.64;100.00;96217.41;4989389;28;20071;-66
2023/09/11 03:14:45;;;;;;;10.48;9.52;;;;;;;16.65;100.00;96227.03;4992414;28;20151;-66
2023/09/11 03:17:13;;;;;;;11.70;10.68;;;;;;;16.65;100.00;96229.69;4992831;28;20029;-66
2023/09/11 03:19:39;;;;;;;10.38;9.38;;;;;;;16.61;100.00;96227.38;5003659;28;20346;-66
2023/09/11 03:22:04;;;;;;;10.85;10.10;;;;;;;16.59;100.00;96221.38;5013213;28;20045;-66
2023/09/11 03:24:29;;;;;;;11.20;10.07;;;;;;;16.59;100.00;96224.03;4992713;28;20153;-66
2023/09/11 03:26:55;;;;;;;11.75;10.57;;;;;;;16.59;100.00;96210.75;4997065;28;20028;-66
2023/09/11 03:29:20;;;;;;;16.20;14.65;;;;;;;16.59;100.00;96210.75;4987586;28;20042;-66
2023/09/11 03:31:46;;;;;;;14.18;13.00;;;;;;;16.56;100.00;96211.09;4973976;28;20026;-66
2023/09/11 03:34:12;;;;;;;12.07;11.07;;;;;;;16.54;100.00;96213.09;4984137;28;20549;-66
2023/09/11 03:36:37;;;;;;;9.90;9.02;;;;;;;16.51;100.00;96210.78;4980600;28;20138;-66
2023/09/11 03:39:02;;;;;;;10.43;9.45;;;;;;;16.50;100.00;96205.59;4984021;28;20034;-66
2023/09/11 03:41:29;;;;;;;11.57;10.43;;;;;;;16.50;100.00;96206.47;4989731;28;20053;-66
2023/09/11 03:43:55;;;;;;;10.38;9.48;;;;;;;16.50;100.00;96201.16;4988317;28;20110;-66
2023/09/11 03:46:20;;;;;;;12.27;11.27;;;;;;;16.52;100.00;96203.63;4977585;28;20061;-66
2023/09/11 03:48:47;;;;;;;11.30;10.27;;;;;;;16.48;100.00;96197.81;4994240;28;20072;-66
2023/09/11 03:51:12;;;;;;;10.85;9.77;;;;;;;16.44;100.00;96185.84;4986896;28;20030;-66
2023/09/11 03:53:42;;;;;;;11.15;10.07;;;;;;;16.43;100.00;96189.50;4988866;28;20023;-66
2023/09/11 03:56:12;;;;;;;11.15;10.15;;;;;;;16.40;100.00;96188.03;4992564;28;20042;-66
2023/09/11 03:58:38;;;;;;;11.35;10.35;;;;;;;16.41;100.00;96187.03;4987979;28;20506;-66
2023/09/11 04:01:04;;;;;;;10.30;9.50;;;;;;;16.37;100.00;96184.84;4991876;28;20552;-66
2023/09/11 04:03:29;;;;;;;10.43;9.63;;;;;;;16.36;100.00;96189.34;4986287;28;20062;-66
2023/09/11 04:05:55;;;;;;;11.05;10.02;;;;;;;16.36;100.00;96183.19;4979039;28;20050;-66
2023/09/11 04:08:20;;;;;;;11.63;9.95;;;;;;;16.36;100.00;96188.50;4979885;28;20500;-66
2023/09/11 04:10:45;;;;;;;10.18;9.38;;;;;;;16.33;100.00;96185.19;4980326;28;20463;-66
2023/09/11 04:13:11;;;;;;;11.20;10.20;;;;;;;16.30;100.00;96174.91;4991578;28;20018;-66
2023/09/11 04:15:36;;;;;;;10.52;9.63;;;;;;;16.29;100.00;96178.56;4990591;28;20054;-66
2023/09/11 04:18:02;;;;;;;12.50;10.55;;;;;;;16.26;100.00;96183.34;4998182;28;20064;-66
2023/09/11 04:20:33;;;;;;;12.07;9.82;;;;;;;16.24;100.00;96178.19;4986049;28;20607;-66
2023/09/11 04:23:00;;;;;;;13.07;10.48;;;;;;;16.23;100.00;96171.22;4988020;28;20142;-66
2023/09/11 04:25:25;;;;;;;10.73;9.68;;;;;;;16.24;100.00;96182.69;4990846;28;20030;-66
2023/09/11 04:27:50;;;;;;;10.80;10.00;;;;;;;16.20;100.00;96174.22;4984847;28;20018;-66
2023/09/11 04:30:17;;;;;;;11.80;10.60;;;;;;;16.14;100.00;96183.69;4989731;28;20499;-66
2023/09/11 04:32:44;;;;;;;11.18;10.30;;;;;;;16.09;100.00;96174.56;4987785;28;20068;-66
2023/09/11 04:35:09;;;;;;;11.27;10.18;;;;;;;16.03;100.00;96168.91;4987699;28;20094;-66
2023/09/11 04:37:36;;;;;;;12.80;10.70;;;;;;;16.02;100.00;96167.22;4992391;28;20073;-67
2023/09/11 04:40:01;;;;;;;11.25;10.40;;;;;;;16.01;100.00;96168.22;4989442;28;20015;-66
2023/09/11 04:42:26;;;;;;;10.40;9.45;;;;;;;16.03;100.00;96168.06;4997736;28;20090;-69
2023/09/11 04:44:52;;;;;;;10.43;9.60;;;;;;;16.03;100.00;96165.41;4984900;28;20034;-65
2023/09/11 04:47:17;;;;;;;10.50;9.52;;;;;;;16.03;100.00;96163.59;4990610;28;20030;-68
2023/09/11 04:49:43;;;;;;;10.95;9.98;;;;;;;16.02;100.00;96156.59;4981425;28;20113;-65
2023/09/11 04:52:08;;;;;;;10.88;9.88;;;;;;;16.00;100.00;96153.28;4990679;28;20105;-66
2023/09/11 04:54:33;;;;;;;12.38;11.38;;;;;;;15.97;100.00;96156.28;4985246;28;20167;-65
2023/09/11 04:56:59;;;;;;;11.32;10.13;;;;;;;15.95;100.00;96150.31;4991222;28;20027;-68
2023/09/11 04:59:24;;;;;;;11.60;10.60;;;;;;;15.93;100.00;96146.97;4982809;28;20027;-68
2023/09/11 05:01:49;;;;;;;10.80;10.05;;;;;;;15.91;100.00;96141.00;4985269;28;20018;-65
2023/09/11 05:04:15;;;;;;;11.75;10.85;;;;;;;15.93;100.00;96141.69;4985105;28;20100;-65
2023/09/11 05:06:40;;;;;;;15.85;11.73;;;;;;;15.92;100.00;96140.00;4991525;28;20034;-68
2023/09/11 05:09:07;;;;;;;11.45;10.65;;;;;;;15.90;100.00;96139.34;4983185;28;20584;-66
2023/09/11 05:11:32;;;;;;;11.60;10.48;;;;;;;15.87;100.00;96137.00;4985288;28;20690;-65
2023/09/11 05:13:57;;;;;;;12.18;11.15;;;;;;;15.90;100.00;96136.69;4988378;28;20062;-65
2023/09/11 05:16:23;;;;;;;11.93;10.98;;;;;;;15.95;100.00;96145.00;4982424;28;20110;-66
2023/09/11 05:18:48;;;;;;;11.73;10.50;;;;;;;15.96;100.00;96144.00;4992109;28;20031;-66
2023/09/11 05:21:13;;;;;;;13.35;10.40;;;;;;;15.94;100.00;96151.31;4983625;28;20679;-68
2023/09/11 05:23:42;;;;;;;13.45;10.70;;;;;;;15.93;100.00;96149.63;4982434;28;20121;-68
2023/09/11 05:26:08;;;;;;;13.90;11.02;;;;;;;15.92;100.00;96155.94;4985844;28;20549;-68
2023/09/11 05:28:33;;;;;;;12.02;10.38;;;;;;;15.91;100.00;96159.59;4983501;28;20054;-68
2023/09/11 05:30:58;;;;;;;14.30;10.75;;;;;;;15.95;100.00;96152.16;4979842;28;20101;-68
2023/09/11 05:33:24;;;;;;;18.58;11.55;;;;;;;15.93;100.00;96152.28;4986334;28;20034;-68
2023/09/11 05:35:49;;;;;;;12.98;11.13;;;;;;;15.93;100.00;96151.47;4988855;28;20026;-68
2023/09/11 05:38:15;;;;;;;13.00;10.82;;;;;;;15.92;100.00;96150.63;4992421;28;20045;-68
2023/09/11 05:40:40;;;;;;;12.23;11.20;;;;;;;15.95;100.00;96158.28;4986102;28;20130;-68
2023/09/11 05:43:05;;;;;;;22.95;19.98;;;;;;;15.99;100.00;96156.13;4992639;28;20547;-68
2023/09/11 05:45:31;;;;;;;16.35;12.73;;;;;;;16.03;100.00;96168.91;4989772;28;20040;-68
2023/09/11 05:47:56;;;;;;;14.05;12.75;;;;;;;16.03;100.00;96168.91;4993808;28;20030;-66
2023/09/11 05:50:22;;;;;;;11.93;10.82;;;;;;;16.03;100.00;96160.94;4993735;28;20034;-69
2023/09/11 05:52:47;;;;;;;13.75;10.63;;;;;;;16.08;100.00;96175.56;4991857;28;20117;-68
2023/09/11 05:55:12;;;;;;;12.00;10.93;;;;;;;16.07;100.00;96168.59;4993501;28;20087;-67
2023/09/11 05:57:38;;;;;;;14.35;11.52;;;;;;;16.03;100.00;96168.91;4981763;28;20035;-68
2023/09/11 06:00:09;;;;;;;12.95;11.75;;;;;;;16.04;100.00;96164.41;4989150;28;20192;-67
2023/09/11 06:02:35;;;;;;;13.00;11.80;;;;;;;16.03;100.00;96168.06;4982881;28;20113;-67
2023/09/11 06:05:00;;;;;;;14.02;11.32;;;;;;;15.95;100.00;96166.22;4993678;28;20514;-68
2023/09/11 06:07:26;;;;;;;21.33;11.40;;;;;;;15.99;100.00;96162.25;4987288;28;20029;-67
2023/09/11 06:09:51;;;;;;;20.35;11.80;;;;;;;16.02;100.00;96167.22;4987348;28;20057;-67
2023/09/11 06:12:16;;;;;;;14.13;11.35;;;;;;;16.07;100.00;96164.09;4992595;28;20561;-69
2023/09/11 06:14:42;;;;;;;14.55;11.35;;;;;;;16.13;100.00;96159.94;4980783;28;20039;-67
2023/09/11 06:17:07;;;;;;;11.77;10.73;;;;;;;16.20;100.00;96152.97;4980894;28;20034;-68
2023/09/11 06:19:33;;;;;;;14.60;11.35;;;;;;;16.23;100.00;96157.94;4999253;28;20057;-68
2023/09/11 06:21:58;;;;;;;12.57;11.32;;;;;;;16.27;100.00;96159.28;4987577;28;20032;-68
2023/09/11 06:24:24;;;;;;;15.63;11.63;;;;;;;16.32;100.00;96162.28;4987199;28;20030;-68
2023/09/11 06:27:02;;;;;;;12.43;11.18;;;;;;;16.40;100.00;96160.59;4987361;28;20053;-68
2023/09/11 06:29:28;;;;;;;14.52;11.73;;;;;;;16.40;100.00;96166.75;4978454;28;20055;-67
2023/09/11 06:31:53;;;;;;;22.90;11.95;;;;;;;16.46;100.00;96157.28;4983488;28;20061;-68
2023/09/11 06:34:19;;;;;;;26.02;12.30;;;;;;;16.50;100.00;96158.63;4986985;28;20510;-67
2023/09/11 06:36:44;;;;;;;19.50;10.73;;;;;;;16.53;100.00;96155.63;4983741;28;20030;-68
2023/09/11 06:39:09;;;;;;;19.17;11.88;;;;;;;16.61;100.00;96158.25;4996534;28;20065;-68
2023/09/11 06:41:35;;;;;;;16.40;11.70;;;;;;;16.68;100.00;96157.56;4993680;28;20037;-68
2023/09/11 06:44:02;;;;;;;19.88;11.60;;;;;;;16.72;100.00;96161.59;4991973;28;20027;-68
2023/09/11 06:46:27;;;;;;;17.63;12.02;;;;;;;16.75;100.00;96166.56;4984699;28;20095;-68
2023/09/11 06:48:53;;;;;;;16.42;11.48;;;;;;;16.79;100.00;96167.03;4983283;28;20033;-67
2023/09/11 06:51:18;;;;;;;16.27;11.93;;;;;;;16.85;100.00;96167.19;4983899;28;20105;-68
2023/09/11 06:53:43;;;;;;;15.05;12.13;;;;;;;16.91;100.00;96165.69;4992370;28;20022;-68
2023/09/11 06:56:09;;;;;;;20.38;12.60;;;;;;;17.18;100.00;96166.28;4981923;28;20105;-68
2023/09/11 06:58:34;;;;;;;17.02;12.20;;;;;;;17.63;100.00;96161.28;4993359;28;20033;-68
2023/09/11 07:01:00;;;;;;;20.88;12.32;;;;;;;18.07;100.00;96175.84;4985377;28;20057;-68
2023/09/11 07:03:26;;;;;;;13.70;11.00;;;;;;;18.40;100.00;96166.75;4992770;28;20716;-68
2023/09/11 07:05:51;;;;;;;17.08;11.57;;;;;;;18.64;100.00;96178.22;4992759;28;20471;-67
2023/09/11 07:08:17;;;;;;;13.98;10.25;;;;;;;18.88;100.00;96177.16;4992440;28;20061;-68
2023/09/11 07:10:49;;;;;;;11.70;9.70;;;;;;;19.21;100.00;96176.00;4975459;28;20027;-68
2023/09/11 07:13:14;;;;;;;14.38;9.98;;;;;;;19.69;100.00;96175.59;4993104;28;20082;-68
2023/09/11 07:15:39;;;;;;;14.65;9.95;;;;;;;20.16;100.00;96141.34;4986970;28;20559;-68
2023/09/11 07:18:05;;;;;;;10.65;9.55;;;;;;;20.55;100.00;96139.22;4992453;28;20022;-65
2023/09/11 07:20:30;;;;;;;10.25;8.38;;;;;;;20.83;100.00;96133.09;4974168;28;20058;-65
2023/09/11 07:22:56;;;;;;;9.80;8.85;;;;;;;21.20;100.00;96108.78;4974231;28;20106;-66
2023/09/11 07:25:22;;;;;;;9.90;9.00;;;;;;;21.53;100.00;96092.00;4986129;28;20018;-66
2023/09/11 07:27:48;;;;;;;9.20;8.38;;;;;;;21.78;100.00;96078.09;4992706;28;20098;-65
2023/09/11 07:30:14;;;;;;;10.57;8.45;;;;;;;21.83;100.00;96075.63;4990669;28;20043;-66
2023/09/11 07:32:40;;;;;;;8.93;7.55;;;;;;;21.77;100.00;96082.63;4981189;28;20022;-65
2023/09/11 07:35:07;;;;;;;9.18;8.00;;;;;;;21.71;100.00;96100.31;4987518;28;20087;-66
2023/09/11 07:37:32;;;;;;;8.55;7.20;;;;;;;21.63;100.00;96119.25;4986272;28;20464;-66
2023/09/11 07:39:58;;;;;;;8.30;7.53;;;;;;;21.54;100.00;96131.16;4992316;28;20022;-66
2023/09/11 07:42:23;;;;;;;8.20;7.50;;;;;;;21.48;100.00;96148.88;4980153;28;20497;-66
2023/09/11 07:44:49;;;;;;;10.80;7.97;;;;;;;21.47;100.00;96148.03;4974411;28;20117;-66
2023/09/11 07:47:14;;;;;;;10.95;7.60;;;;;;;21.36;100.00;96151.28;5026042;28;20069;-66
2023/09/11 07:49:40;;;;;;;8.20;7.50;;;;;;;21.47;100.00;96163.28;4997700;28;20057;-66
2023/09/11 07:52:05;;;;;;;8.27;7.57;;;;;;;21.51;100.00;96136.91;4989657;28;20018;-65
2023/09/11 07:54:32;;;;;;;8.48;7.68;;;;;;;21.58;100.00;96111.00;4977946;28;20030;-66
2023/09/11 07:56:57;;;;;;;8.27;7.47;;;;;;;21.63;100.00;96110.38;4980166;28;20026;-66
2023/09/11 07:59:22;;;;;;;7.75;6.95;;;;;;;21.88;100.00;96092.75;4991057;28;20797;-65
2023/09/11 08:01:48;;;;;;;7.72;7.07;;;;;;;22.07;100.00;96092.97;4992211;28;20167;-66
2023/09/11 08:04:13;;;;;;;7.82;7.05;;;;;;;22.26;100.00;96093.19;4976800;28;20019;-66
2023/09/11 08:06:39;;;;;;;7.75;7.18;;;;;;;22.44;100.00;96093.38;4985876;28;20057;-66
2023/09/11 08:09:04;;;;;;;7.85;7.22;;;;;;;22.57;100.00;96079.16;4991491;28;20023;-66
2023/09/11 08:11:31;;;;;;;8.68;7.80;;;;;;;22.69;100.00;96073.16;4978717;28;20034;-65
2023/09/11 08:13:57;;;;;;;8.00;7.32;;;;;;;22.77;100.00;96051.47;4979841;28;20483;-66
2023/09/11 08:16:23;;;;;;;7.22;6.72;;;;;;;22.83;100.00;96039.88;4991647;28;20049;-65
2023/09/11 08:18:49;;;;;;;10.55;7.00;;;;;;;22.63;100.00;96033.75;4983721;28;20080;-66
2023/09/11 08:21:14;;;;;;;8.05;7.25;;;;;;;22.60;100.00;96021.59;4985297;28;20482;-65
2023/09/11 08:23:45;;;;;;;7.07;6.47;;;;;;;22.53;100.00;96029.66;4990549;28;20048;-66
2023/09/11 08:26:11;;;;;;;7.40;6.80;;;;;;;22.74;100.00;96038.47;4992544;28;20022;-66
2023/09/11 08:28:37;;;;;;;7.75;6.95;;;;;;;22.93;100.00;96030.56;4985831;28;20685;-66
2023/09/11 08:31:03;;;;;;;7.15;6.45;;;;;;;22.99;100.00;96017.13;4988213;28;20026;-66
2023/09/11 08:33:28;;;;;;;7.75;7.05;;;;;;;23.09;100.00;96013.16;4972673;28;20810;-65
2023/09/11 08:35:54;;;;;;;7.70;7.15;;;;;;;23.15;100.00;96029.25;4972954;28;20031;-66
2023/09/11 08:38:19;;;;;;;7.63;7.07;;;;;;;23.24;100.00;96043.25;4985060;28;20097;-66
2023/09/11 08:40:45;;;;;;;7.18;6.68;;;;;;;23.29;100.00;96021.97;4983271;28;20054;-68
2023/09/11 08:43:11;;;;;;;7.10;6.40;;;;;;;23.51;100.00;96050.38;4995655;28;20430;-66
2023/09/11 08:45:37;;;;;;;7.03;6.45;;;;;;;23.54;100.00;96063.38;4972948;28;20912;-67
2023/09/11 08:48:08;;;;;;;7.70;6.82;;;;;;;23.74;100.00;96074.00;4991031;28;20406;-66
2023/09/11 08:50:36;;;;;;;7.43;6.82;;;;;;;23.97;100.00;96068.06;4985144;28;20030;-66
2023/09/11 08:53:02;;;;;;;7.80;7.18;;;;;;;23.88;100.00;96035.28;4988529;28;20034;-66
2023/09/11 08:55:28;;;;;;;7.38;6.65;;;;;;;23.80;100.00;96032.81;4991157;28;20038;-66
2023/09/11 08:57:57;;;;;;;7.07;6.50;;;;;;;23.81;100.00;96021.03;4990220;28;20041;-66
2023/09/11 09:00:24;;;;;;;7.63;6.97;;;;;;;23.91;100.00;96025.91;4989583;28;20052;-66
2023/09/11 09:02:50;;;;;;;8.90;6.97;;;;;;;23.89;100.00;96034.22;4990623;28;20053;-66
2023/09/11 09:05:16;;;;;;;7.53;6.82;;;;;;;24.12;100.00;96037.38;4987348;28;20619;-66
2023/09/11 09:07:43;;;;;;;7.50;6.55;;;;;;;23.98;100.00;96017.81;4986389;28;20030;-66
2023/09/11 09:10:09;;;;;;;7.30;6.80;;;;;;;24.00;100.00;96016.56;4982608;28;20038;-66
2023/09/11 09:12:35;;;;;;;7.35;6.32;;;;;;;23.98;100.00;96005.19;4982653;28;20399;-66
2023/09/11 09:15:03;;;;;;;7.18;6.68;;;;;;;23.94;100.00;96003.97;4981010;28;20034;-65
2023/09/11 09:17:28;;;;;;;6.68;6.07;;;;;;;24.13;100.00;95993.31;4994888;28;20047;-66
2023/09/11 09:19:53;;;;;;;7.53;6.80;;;;;;;24.29;100.00;95990.06;4996641;28;20472;-66
2023/09/11 09:22:19;;;;;;;7.57;6.97;;;;;;;24.47;100.00;95980.38;4994651;28;20046;-66
2023/09/11 09:24:55;;;;;;;7.28;6.78;;;;;;;24.50;100.00;95987.16;4979565;28;20026;-66
2023/09/11 09:27:24;;;;;;;7.53;6.82;;;;;;;24.34;100.00;95981.31;4988191;28;20580;-66
2023/09/11 09:29:50;;;;;;;7.88;6.90;;;;;;;24.25;100.00;95996.94;4980712;28;20425;-66
2023/09/11 09:32:16;;;;;;;7.50;6.88;;;;;;;24.22;100.00;95991.16;4984148;28;20035;-66
2023/09/11 09:34:48;;;;;;;7.25;6.60;;;;;;;24.28;100.00;95992.97;4976283;28;20034;-66
2023/09/11 09:37:16;;;;;;;7.88;7.05;;;;;;;24.17;100.00;95992.66;4980383;28;20038;-66
2023/09/11 09:39:44;;;;;;;7.45;6.63;;;;;;;24.17;100.00;95987.28;4993976;28;20033;-66
2023/09/11 09:42:12;;;;;;;6.85;6.35;;;;;;;24.25;100.00;95988.84;4993822;28;20026;-66
2023/09/11 09:44:39;;;;;;;8.10;6.75;;;;;;;24.37;100.00;95985.44;4983441;28;20034;-66
2023/09/11 09:47:17;;;;;;;7.30;6.70;;;;;;;24.42;100.00;95981.03;4989794;28;20033;-65
2023/09/11 09:49:57;;;;;;;7.68;6.97;;;;;;;24.52;100.00;95975.13;4993875;28;20029;-66
2023/09/11 09:52:26;;;;;;;8.52;7.38;;;;;;;24.61;100.00;95973.78;4977773;28;20390;-66
2023/09/11 09:54:54;;;;;;;7.28;6.68;;;;;;;24.46;100.00;95963.38;4988346;28;20093;-66
2023/09/11 09:57:21;;;;;;;7.00;6.40;;;;;;;24.54;100.00;95970.34;4981802;28;20057;-66
2023/09/11 09:59:49;;;;;;;7.05;6.55;;;;;;;24.53;100.00;95959.78;4993497;28;20034;-66
2023/09/11 10:02:23;;;;;;;8.35;7.47;;;;;;;24.75;100.00;95962.91;4993891;28;20030;-66
2023/09/11 10:04:57;;;;;;;7.85;7.18;;;;;;;24.67;100.00;95963.19;4990064;28;20046;-66
2023/09/11 10:07:41;;;;;;;7.20;6.65;;;;;;;24.74;100.00;95966.59;4979530;28;20026;-66
2023/09/11 10:10:30;;;;;;;7.80;6.88;;;;;;;24.88;100.00;95956.53;4977045;28;20087;-66
2023/09/11 10:13:02;;;;;;;6.90;6.28;;;;;;;25.08;100.00;95947.38;4982081;28;20031;-66
2023/09/11 10:15:29;;;;;;;7.07;6.50;;;;;;;25.09;100.00;95947.16;4993542;28;20054;-66
2023/09/11 10:17:55;;;;;;;7.47;6.93;;;;;;;25.24;100.00;95935.13;4991955;28;20022;-66
2023/09/11 10:20:21;;;;;;;8.35;6.55;;;;;;;25.37;100.00;95943.03;4987801;28;20031;-66
2023/09/11 10:22:46;;;;;;;8.52;6.75;;;;;;;25.39;100.00;95932.84;4991008;28;20027;-67
2023/09/11 10:25:12;;;;;;;7.60;6.85;;;;;;;25.52;100.00;95925.63;4993325;28;20105;-66
2023/09/11 10:27:38;;;;;;;7.07;6.35;;;;;;;25.70;100.00;95927.41;4983786;28;20030;-66
2023/09/11 10:30:06;;;;;;;7.40;6.72;;;;;;;25.74;100.00;95926.69;4974662;28;20054;-66
2023/09/11 10:32:47;;;;;;;7.55;6.85;;;;;;;25.80;100.00;95929.53;4975077;28;20031;-66
2023/09/11 10:35:13;;;;;;;7.60;6.78;;;;;;;25.80;100.00;95922.25;4983429;28;20037;-66
2023/09/11 10:37:41;;;;;;;7.30;6.60;;;;;;;25.73;100.00;95921.56;4990797;28;20743;-66
2023/09/11 10:40:10;;;;;;;7.25;6.65;;;;;;;25.80;100.00;95911.47;4976159;28;20027;-67
2023/09/11 10:42:35;;;;;;;6.93;6.35;;;;;;;25.88;100.00;95907.63;4976663;28;20105;-69
2023/09/11 10:45:03;;;;;;;7.18;6.55;;;;;;;25.88;100.00;95902.22;4973728;28;20061;-66
2023/09/11 10:47:29;;;;;;;8.25;6.45;;;;;;;25.98;100.00;95907.88;4985442;28;20471;-66
2023/09/11 10:49:57;;;;;;;7.13;6.28;;;;;;;26.11;100.00;95896.00;4984357;28;20035;-66
2023/09/11 10:52:24;;;;;;;7.88;6.43;;;;;;;26.24;100.00;95884.19;4989829;28;20392;-66
2023/09/11 10:54:50;;;;;;;6.68;6.10;;;;;;;26.41;100.00;95878.84;4992645;28;20030;-66
2023/09/11 10:57:16;;;;;;;5.88;5.45;;;;;;;26.51;100.00;95867.44;4993238;28;20057;-65
2023/09/11 10:59:41;;;;;;;6.32;5.82;;;;;;;26.76;100.00;95871.72;4979977;28;20053;-65
2023/09/11 11:02:07;;;;;;;6.00;5.50;;;;;;;26.94;100.00;95870.72;4976774;28;20391;-66
2023/09/11 11:04:34;;;;;;;6.30;5.80;;;;;;;27.15;100.00;95869.22;4989291;28;20026;-66
2023/09/11 11:07:01;;;;;;;6.63;6.13;;;;;;;27.42;100.00;95863.19;4991341;28;20030;-66
2023/09/11 11:09:34;;;;;;;6.28;5.68;;;;;;;27.54;100.00;95868.53;4974235;28;20681;-66
2023/09/11 11:12:03;;;;;;;6.10;5.55;;;;;;;27.80;100.00;95860.00;4990023;28;20041;-66
2023/09/11 11:14:29;;;;;;;6.63;5.97;;;;;;;28.00;100.00;95854.06;4992978;28;20026;-66
2023/09/11 11:17:10;;;;;;;5.80;5.30;;;;;;;28.15;100.00;95850.72;4992234;28;20079;-66